Time;durP1;ratioP1;P1;durP2;ratioP2;P2;SDS_P1;SDS_P2;PMS_P1;PMS_P2;Temp;Humidity;BMP_temperature;BMP_pressure;BME280_temperature;BME280_humidity;BME280_pressure;Samples;Min_cycle;Max_cycle;Signal;HPM_P1;HPM_P2
2024/01/16 00:01:35;;;;;;;6.63;1.27;;;;;;;-148.88;100.00;-17125.47;5033444;28;20063;-87
2024/01/16 00:04:01;;;;;;;3.95;1.45;;;;;;;-148.88;100.00;-17125.47;5033128;28;20029;-87
2024/01/16 00:06:26;;;;;;;2.63;1.08;;;;;;;-148.88;100.00;-17125.47;5036856;28;20096;-87
2024/01/16 00:08:52;;;;;;;3.55;1.17;;;;;;;-148.88;100.00;-17125.47;5036991;28;20049;-87
2024/01/16 00:11:17;;;;;;;3.22;1.08;;;;;;;-148.88;100.00;-17125.47;5035888;28;20024;-86
2024/01/16 00:13:42;;;;;;;2.80;1.00;;;;;;;-148.88;100.00;-17125.47;5037404;28;20083;-88
2024/01/16 00:16:08;;;;;;;4.43;1.02;;;;;;;-148.88;100.00;-17125.47;5036915;28;20026;-87
2024/01/16 00:18:34;;;;;;;11.90;1.70;;;;;;;-148.88;100.00;-17125.47;5035616;28;20112;-87
2024/01/16 00:21:03;;;;;;;6.60;1.48;;;;;;;-148.88;100.00;-17125.47;5035806;28;20091;-87
2024/01/16 00:23:28;;;;;;;3.15;1.50;;;;;;;-148.88;100.00;-17125.47;5035405;28;20025;-88
2024/01/16 00:25:54;;;;;;;4.40;1.55;;;;;;;-148.88;100.00;-17125.47;5036538;28;20384;-88
2024/01/16 00:28:19;;;;;;;2.47;1.10;;;;;;;-148.88;100.00;-17125.47;5036710;28;20133;-88
2024/01/16 00:30:45;;;;;;;3.00;0.77;;;;;;;-148.88;100.00;-17125.47;5036444;28;20444;-87
2024/01/16 00:33:12;;;;;;;4.47;1.17;;;;;;;-148.88;100.00;-17125.47;5035490;28;20151;-87
2024/01/16 00:35:37;;;;;;;10.80;1.50;;;;;;;-148.88;100.00;-17125.47;5036729;28;20036;-87
2024/01/16 00:38:03;;;;;;;5.63;1.65;;;;;;;-148.88;100.00;-17125.47;5037462;28;20021;-87
2024/01/16 00:40:28;;;;;;;2.78;1.00;;;;;;;-148.88;100.00;-17125.47;5036761;28;20032;-87
2024/01/16 00:42:53;;;;;;;3.38;0.93;;;;;;;-148.88;100.00;-17125.47;5035371;28;20116;-86
2024/01/16 00:45:19;;;;;;;7.82;0.90;;;;;;;-148.88;100.00;-17125.47;5036778;28;20021;-87
2024/01/16 00:47:44;;;;;;;5.63;0.80;;;;;;;-148.88;100.00;-17125.47;5036215;28;20060;-87
2024/01/16 00:50:10;;;;;;;3.80;0.95;;;;;;;-148.88;100.00;-17125.47;5037690;28;20063;-88
2024/01/16 00:52:35;;;;;;;4.60;0.90;;;;;;;-148.88;100.00;-17125.47;5035976;28;20029;-87
2024/01/16 00:55:01;;;;;;;4.25;1.05;;;;;;;-148.88;100.00;-17125.47;5036311;28;20029;-87
2024/01/16 00:57:26;;;;;;;1.00;0.55;;;;;;;-148.88;100.00;-17125.47;5035191;28;20018;-87
2024/01/16 00:59:52;;;;;;;7.40;0.80;;;;;;;-148.88;100.00;-17125.47;5036161;28;20065;-87
2024/01/16 01:02:17;;;;;;;6.25;0.80;;;;;;;-148.88;100.00;-17125.47;5035424;28;20480;-88
2024/01/16 01:04:46;;;;;;;2.17;0.85;;;;;;;-148.88;100.00;-17125.47;5035671;28;20028;-87
2024/01/16 01:07:14;;;;;;;6.15;1.15;;;;;;;-148.88;100.00;-17125.47;5036573;28;20431;-87
2024/01/16 01:09:40;;;;;;;5.13;1.30;;;;;;;-148.88;100.00;-17125.47;5035624;28;20499;-87
2024/01/16 01:12:06;;;;;;;3.65;1.10;;;;;;;-148.88;100.00;-17125.47;5034519;28;20029;-87
2024/01/16 01:14:31;;;;;;;2.95;0.93;;;;;;;-148.88;100.00;-17125.47;5034404;28;20033;-87
2024/01/16 01:17:00;;;;;;;3.78;1.05;;;;;;;-148.88;100.00;-17125.47;5033028;28;20391;-87
2024/01/16 01:19:25;;;;;;;4.07;0.77;;;;;;;-148.88;100.00;-17125.47;5035495;28;20022;-88
2024/01/16 01:21:50;;;;;;;2.40;0.80;;;;;;;-148.88;100.00;-17125.47;5035891;28;20044;-87
2024/01/16 01:24:16;;;;;;;2.92;1.00;;;;;;;-148.88;100.00;-17125.47;5035141;28;20373;-87
2024/01/16 01:26:44;;;;;;;3.83;0.80;;;;;;;-148.88;100.00;-17125.47;5034291;28;20120;-87
2024/01/16 01:29:10;;;;;;;2.92;0.70;;;;;;;-148.88;100.00;-17125.47;5034595;28;20392;-87
2024/01/16 01:31:35;;;;;;;2.75;0.80;;;;;;;-148.88;100.00;-17125.47;5035268;28;20030;-87
2024/01/16 01:34:01;;;;;;;3.33;0.77;;;;;;;-148.88;100.00;-17125.47;5034036;28;20041;-88
2024/01/16 01:36:27;;;;;;;3.80;1.00;;;;;;;-148.88;100.00;-17125.47;5034543;28;20025;-87
2024/01/16 01:38:52;;;;;;;3.50;1.10;;;;;;;-148.88;100.00;-17125.47;5034148;28;20052;-87
2024/01/16 01:41:18;;;;;;;5.10;1.52;;;;;;;-148.88;100.00;-17125.47;5035125;28;20025;-87
2024/01/16 01:43:43;;;;;;;4.22;0.88;;;;;;;-148.88;100.00;-17125.47;5033636;28;20025;-87
2024/01/16 01:46:17;;;;;;;3.55;0.95;;;;;;;-148.88;100.00;-17125.47;5033795;28;20037;-87
2024/01/16 01:48:45;;;;;;;7.50;1.05;;;;;;;-148.88;100.00;-17125.47;5034460;28;20356;-86
2024/01/16 01:51:12;;;;;;;7.03;1.13;;;;;;;-148.88;100.00;-17125.47;5035098;28;20025;-87
2024/01/16 01:53:43;;;;;;;10.15;1.50;;;;;;;-148.88;100.00;-17125.47;5034957;28;20033;-87
2024/01/16 01:56:11;;;;;;;5.55;1.25;;;;;;;-148.88;100.00;-17125.47;5034712;28;20035;-87
2024/01/16 01:58:38;;;;;;;6.60;1.42;;;;;;;-148.88;100.00;-17125.47;5035160;28;20026;-87
2024/01/16 02:01:06;;;;;;;4.30;1.50;;;;;;;-148.88;100.00;-17125.47;5032062;28;20045;-87
2024/01/16 02:03:51;;;;;;;2.80;0.90;;;;;;;-148.88;100.00;-17125.47;5033191;28;20052;-85
2024/01/16 02:06:25;;;;;;;5.47;1.25;;;;;;;-148.88;100.00;-17125.47;5032972;28;20053;-87
2024/01/16 02:08:51;;;;;;;7.80;1.38;;;;;;;-148.88;100.00;-17125.47;5032934;28;20021;-87
2024/01/16 02:11:17;;;;;;;4.45;1.42;;;;;;;-148.88;100.00;-17125.47;5032913;28;20091;-87
2024/01/16 02:13:49;;;;;;;4.15;1.30;;;;;;;-148.88;100.00;-17125.47;5034459;28;20498;-87
2024/01/16 02:16:22;;;;;;;3.00;1.15;;;;;;;-148.88;100.00;-17125.47;5034479;28;20083;-87
2024/01/16 02:18:53;;;;;;;7.10;1.50;;;;;;;-148.88;100.00;-17125.47;5035750;28;20108;-87
2024/01/16 02:21:28;;;;;;;8.27;1.75;;;;;;;-148.88;100.00;-17125.47;5036620;28;20025;-87
2024/01/16 02:24:02;;;;;;;6.45;2.00;;;;;;;-148.88;100.00;-17125.47;5035241;28;20028;-88
2024/01/16 02:26:28;;;;;;;5.20;1.50;;;;;;;-148.88;100.00;-17125.47;5033183;28;20018;-87
2024/01/16 02:28:53;;;;;;;10.35;1.65;;;;;;;-148.88;100.00;-17125.47;5034286;28;20384;-87
2024/01/16 02:31:18;;;;;;;6.72;1.73;;;;;;;-148.88;100.00;-17125.47;5034210;28;20102;-87
2024/01/16 02:33:50;;;;;;;4.57;1.60;;;;;;;-148.88;100.00;-17125.47;5032863;28;20025;-87
2024/01/16 02:36:15;;;;;;;6.82;1.58;;;;;;;-148.88;100.00;-17125.47;5032966;28;20038;-87
2024/01/16 02:38:41;;;;;;;6.75;1.85;;;;;;;-148.88;100.00;-17125.47;5033085;28;20039;-87
2024/01/16 02:41:10;;;;;;;4.47;1.42;;;;;;;-148.88;100.00;-17125.47;5033907;28;20034;-87
2024/01/16 02:43:35;;;;;;;5.72;2.58;;;;;;;-148.88;100.00;-17125.47;5032544;28;20026;-88
2024/01/16 02:46:01;;;;;;;9.10;2.65;;;;;;;-148.88;100.00;-17125.47;5033313;28;20392;-87
2024/01/16 02:48:26;;;;;;;5.82;2.00;;;;;;;-148.88;100.00;-17125.47;5034574;28;20030;-87
2024/01/16 02:50:51;;;;;;;6.82;1.95;;;;;;;-148.88;100.00;-17125.47;5033767;28;20030;-87
2024/01/16 02:53:17;;;;;;;5.40;1.80;;;;;;;-148.88;100.00;-17125.47;5033923;28;20063;-87
2024/01/16 02:55:51;;;;;;;5.53;2.30;;;;;;;-148.88;100.00;-17125.47;5033439;28;20314;-85
2024/01/16 02:58:30;;;;;;;7.97;2.80;;;;;;;-148.88;100.00;-17125.47;5033731;28;20026;-87
2024/01/16 03:00:57;;;;;;;5.90;2.08;;;;;;;-148.88;100.00;-17125.47;5034332;28;20036;-87
2024/01/16 03:03:22;;;;;;;5.55;2.03;;;;;;;-148.88;100.00;-17125.47;5032256;28;20021;-87
2024/01/16 03:05:48;;;;;;;7.78;1.75;;;;;;;-148.88;100.00;-17125.47;5032496;28;20021;-87
2024/01/16 03:08:14;;;;;;;6.75;2.05;;;;;;;-148.88;100.00;-17125.47;5032300;28;20021;-88
2024/01/16 03:10:39;;;;;;;9.23;2.40;;;;;;;-148.88;100.00;-17125.47;5032192;28;20063;-87
2024/01/16 03:13:16;;;;;;;5.15;1.95;;;;;;;-148.88;100.00;-17125.47;5031714;28;20022;-87
2024/01/16 03:15:41;;;;;;;6.93;1.83;;;;;;;-148.88;100.00;-17125.47;5032388;28;20041;-87
2024/01/16 03:18:07;;;;;;;7.45;1.67;;;;;;;-148.88;100.00;-17125.47;5033222;28;20033;-87
2024/01/16 03:20:32;;;;;;;6.70;2.10;;;;;;;-148.88;100.00;-17125.47;5033684;28;20105;-87
2024/01/16 03:22:57;;;;;;;10.48;1.85;;;;;;;-148.88;100.00;-17125.47;5033434;28;20025;-87
2024/01/16 03:25:23;;;;;;;4.80;1.75;;;;;;;-148.88;100.00;-17125.47;5033334;28;20022;-87
2024/01/16 03:27:49;;;;;;;6.35;1.60;;;;;;;-148.88;100.00;-17125.47;5033527;28;20026;-87
2024/01/16 03:30:14;;;;;;;9.27;2.10;;;;;;;-148.88;100.00;-17125.47;5033213;28;20021;-86
2024/01/16 03:32:43;;;;;;;7.15;2.42;;;;;;;-148.88;100.00;-17125.47;5031941;28;20087;-86
2024/01/16 03:35:08;;;;;;;6.95;1.67;;;;;;;-148.88;100.00;-17125.47;5032371;28;20075;-87
2024/01/16 03:37:34;;;;;;;4.80;1.88;;;;;;;-148.88;100.00;-17125.47;5032912;28;20022;-87
2024/01/16 03:40:03;;;;;;;7.85;2.05;;;;;;;-148.88;100.00;-17125.47;5032308;28;20033;-87
2024/01/16 03:42:33;;;;;;;8.70;2.15;;;;;;;-148.88;100.00;-17125.47;5031900;28;20059;-87
2024/01/16 03:44:59;;;;;;;8.55;1.83;;;;;;;-148.88;100.00;-17125.47;5032182;28;20017;-87
2024/01/16 03:47:24;;;;;;;3.65;1.67;;;;;;;-148.88;100.00;-17125.47;5032742;28;20071;-87
2024/01/16 03:49:49;;;;;;;4.95;1.88;;;;;;;-148.88;100.00;-17125.47;5032367;28;20028;-87
2024/01/16 03:52:15;;;;;;;12.05;2.20;;;;;;;-148.88;100.00;-17125.47;5031697;28;20396;-87
2024/01/16 03:54:40;;;;;;;4.35;1.80;;;;;;;-148.88;100.00;-17125.47;5033132;28;20208;-87
2024/01/16 03:57:05;;;;;;;4.28;1.48;;;;;;;-148.88;100.00;-17125.47;5032342;28;20070;-87
2024/01/16 03:59:31;;;;;;;5.45;1.65;;;;;;;-148.88;100.00;-17125.47;5032905;28;20036;-87
2024/01/16 04:01:56;;;;;;;13.68;2.20;;;;;;;-148.88;100.00;-17125.47;5031932;28;20033;-87
2024/01/16 04:04:22;;;;;;;8.57;1.60;;;;;;;-148.88;100.00;-17125.47;5032928;28;20036;-86
2024/01/16 04:06:48;;;;;;;8.20;2.22;;;;;;;-148.88;100.00;-17125.47;5030864;28;20033;-86
2024/01/16 04:09:14;;;;;;;11.20;2.20;;;;;;;-148.88;100.00;-17125.47;5032961;28;20068;-87
2024/01/16 04:11:40;;;;;;;4.85;2.08;;;;;;;-148.88;100.00;-17125.47;5055761;28;20087;-86
2024/01/16 04:14:05;;;;;;;6.18;2.20;;;;;;;-148.88;100.00;-17125.47;5057635;28;20046;-84
2024/01/16 04:16:34;;;;;;;6.97;2.50;;;;;;;-148.88;100.00;-17125.47;5042402;28;20395;-87
2024/01/16 04:19:00;;;;;;;7.20;2.47;;;;;;;-148.88;100.00;-17125.47;5033137;28;20451;-87
2024/01/16 04:21:25;;;;;;;15.15;2.50;;;;;;;-148.88;100.00;-17125.47;5033028;28;20025;-86
2024/01/16 04:23:51;;;;;;;6.00;2.28;;;;;;;-148.88;100.00;-17125.47;5032639;28;20018;-87
2024/01/16 04:26:16;;;;;;;12.20;3.17;;;;;;;-148.88;100.00;-17125.47;5031736;28;20033;-88
2024/01/16 04:28:42;;;;;;;8.20;2.50;;;;;;;-148.88;100.00;-17125.47;5032978;28;20079;-87
2024/01/16 04:31:16;;;;;;;4.82;1.90;;;;;;;-148.88;100.00;-17125.47;5033233;28;20056;-87
2024/01/16 04:33:41;;;;;;;7.88;2.67;;;;;;;-148.88;100.00;-17125.47;5033215;28;20025;-87
2024/01/16 04:36:07;;;;;;;5.97;2.55;;;;;;;-148.88;100.00;-17125.47;5032462;28;20352;-86
2024/01/16 04:38:32;;;;;;;7.03;2.95;;;;;;;-148.88;100.00;-17125.47;5032829;28;20410;-86
2024/01/16 04:41:01;;;;;;;9.05;2.90;;;;;;;-148.88;100.00;-17125.47;5033341;28;20072;-88
2024/01/16 04:43:27;;;;;;;8.30;3.00;;;;;;;-148.88;100.00;-17125.47;5031696;28;20220;-87
2024/01/16 04:45:52;;;;;;;5.97;2.50;;;;;;;-148.88;100.00;-17125.47;5033910;28;20487;-86
2024/01/16 04:48:17;;;;;;;7.57;2.83;;;;;;;-148.88;100.00;-17125.47;5035777;28;20496;-87
2024/01/16 04:50:43;;;;;;;10.05;3.38;;;;;;;-148.88;100.00;-17125.47;5032708;28;20037;-87
2024/01/16 04:53:08;;;;;;;7.57;2.65;;;;;;;-148.88;100.00;-17125.47;5036451;28;20063;-87
2024/01/16 04:55:33;;;;;;;10.48;3.67;;;;;;;-148.88;100.00;-17125.47;5036494;28;20491;-86
2024/01/16 04:58:00;;;;;;;6.20;2.60;;;;;;;-148.88;100.00;-17125.47;5036367;28;20026;-86
2024/01/16 05:00:25;;;;;;;8.50;3.25;;;;;;;-148.88;100.00;-17125.47;5036470;28;20021;-86
2024/01/16 05:02:54;;;;;;;7.18;3.17;;;;;;;-148.88;100.00;-17125.47;5036335;28;20361;-86
2024/01/16 05:05:19;;;;;;;7.93;3.05;;;;;;;-148.88;100.00;-17125.47;5035599;28;20037;-87
2024/01/16 05:07:45;;;;;;;9.18;3.67;;;;;;;-148.88;100.00;-17125.47;5035110;28;20399;-86
2024/01/16 05:10:14;;;;;;;15.75;4.60;;;;;;;-148.88;100.00;-17125.47;5035697;28;20053;-87
2024/01/16 05:12:40;;;;;;;10.02;3.85;;;;;;;-148.88;100.00;-17125.47;5035876;28;20070;-86
2024/01/16 05:15:06;;;;;;;6.60;3.25;;;;;;;-148.88;100.00;-17125.47;5035964;28;20033;-87
2024/01/16 05:17:32;;;;;;;7.97;3.13;;;;;;;-148.88;100.00;-17125.47;5034633;28;20145;-87
2024/01/16 05:19:58;;;;;;;11.90;3.88;;;;;;;-148.88;100.00;-17125.47;5035518;28;20060;-86
2024/01/16 05:22:25;;;;;;;9.68;4.18;;;;;;;-148.88;100.00;-17125.47;5034615;28;20017;-87
2024/01/16 05:24:50;;;;;;;16.77;4.05;;;;;;;-148.88;100.00;-17125.47;5034087;28;20022;-87
2024/01/16 05:27:15;;;;;;;9.75;4.05;;;;;;;-148.88;100.00;-17125.47;5035527;28;20021;-86
2024/01/16 05:29:41;;;;;;;6.95;3.53;;;;;;;-148.88;100.00;-17125.47;5036172;28;20036;-85
2024/01/16 05:32:06;;;;;;;10.48;3.58;;;;;;;-148.88;100.00;-17125.47;5035739;28;20089;-85
2024/01/16 05:34:32;;;;;;;9.43;3.28;;;;;;;-148.88;100.00;-17125.47;5033613;28;20025;-85
2024/01/16 05:36:57;;;;;;;13.50;3.25;;;;;;;-148.88;100.00;-17125.47;5035309;28;20053;-85
2024/01/16 05:39:22;;;;;;;6.75;3.35;;;;;;;-148.88;100.00;-17125.47;5036025;28;20029;-87
2024/01/16 05:41:48;;;;;;;9.23;3.60;;;;;;;-148.88;100.00;-17125.47;5033998;28;20116;-86
2024/01/16 05:44:16;;;;;;;11.80;3.75;;;;;;;-148.88;100.00;-17125.47;5033733;28;20369;-86
2024/01/16 05:46:42;;;;;;;8.60;2.90;;;;;;;-148.88;100.00;-17125.47;5033589;28;20056;-86
2024/01/16 05:49:08;;;;;;;9.10;3.28;;;;;;;-148.88;100.00;-17125.47;5035031;28;20025;-86
2024/01/16 05:51:33;;;;;;;6.05;3.08;;;;;;;-148.88;100.00;-17125.47;5035151;28;20026;-87
2024/01/16 05:53:58;;;;;;;9.05;3.03;;;;;;;-148.88;100.00;-17125.47;5033925;28;20029;-86
2024/01/16 05:56:24;;;;;;;7.70;2.85;;;;;;;-148.88;100.00;-17125.47;5034594;28;20032;-87
2024/01/16 05:58:49;;;;;;;12.02;3.38;;;;;;;-148.88;100.00;-17125.47;5034760;28;20083;-86
2024/01/16 06:01:15;;;;;;;6.72;2.63;;;;;;;-148.88;100.00;-17125.47;5034008;28;20022;-87
2024/01/16 06:03:41;;;;;;;8.50;3.28;;;;;;;-148.88;100.00;-17125.47;5032717;28;20470;-87
2024/01/16 06:06:09;;;;;;;12.07;3.50;;;;;;;-148.88;100.00;-17125.47;5034144;28;20491;-87
2024/01/16 06:08:35;;;;;;;12.00;3.65;;;;;;;-148.88;100.00;-17125.47;5035031;28;20025;-87
2024/01/16 06:11:00;;;;;;;11.50;3.85;;;;;;;-148.88;100.00;-17125.47;5035552;28;20033;-87
2024/01/16 06:13:25;;;;;;;8.25;3.53;;;;;;;-148.88;100.00;-17125.47;5034854;28;20053;-87
2024/01/16 06:15:51;;;;;;;6.60;2.65;;;;;;;-148.88;100.00;-17125.47;5033625;28;20112;-86
2024/01/16 06:18:16;;;;;;;17.92;4.20;;;;;;;-148.88;100.00;-17125.47;5032650;28;20041;-87
2024/01/16 06:20:41;;;;;;;9.48;3.58;;;;;;;-148.88;100.00;-17125.47;5033384;28;20025;-87
2024/01/16 06:23:07;;;;;;;7.70;3.88;;;;;;;-148.88;100.00;-17125.47;5034134;28;20499;-87
2024/01/16 06:25:32;;;;;;;11.50;3.53;;;;;;;-148.88;100.00;-17125.47;5032960;28;20021;-86
2024/01/16 06:27:58;;;;;;;10.25;4.05;;;;;;;-148.88;100.00;-17125.47;5034612;28;20467;-87
2024/01/16 06:30:23;;;;;;;7.63;3.20;;;;;;;-148.88;100.00;-17125.47;5032944;28;20029;-87
2024/01/16 06:32:51;;;;;;;12.40;4.32;;;;;;;-148.88;100.00;-17125.47;5033291;28;20471;-87
2024/01/16 06:35:16;;;;;;;6.80;3.00;;;;;;;-148.88;100.00;-17125.47;5034670;28;20029;-87
2024/01/16 06:37:43;;;;;;;8.40;3.70;;;;;;;-148.88;100.00;-17125.47;5033487;28;20033;-87
2024/01/16 06:40:09;;;;;;;14.82;4.20;;;;;;;-148.88;100.00;-17125.47;5033974;28;20021;-87
2024/01/16 06:42:35;;;;;;;18.80;5.03;;;;;;;-148.88;100.00;-17125.47;5034607;28;20148;-86
2024/01/16 06:45:01;;;;;;;16.20;4.03;;;;;;;-148.88;100.00;-17125.47;5034192;28;20021;-87
2024/01/16 06:47:26;;;;;;;12.52;4.15;;;;;;;-148.88;100.00;-17125.47;5033191;28;20032;-87
2024/01/16 06:49:52;;;;;;;16.33;4.40;;;;;;;-148.88;100.00;-17125.47;5032861;28;20087;-87
2024/01/16 06:52:17;;;;;;;10.77;4.00;;;;;;;-148.88;100.00;-17125.47;5034007;28;20028;-87
2024/01/16 06:54:45;;;;;;;15.27;5.00;;;;;;;-148.88;100.00;-17125.47;5032953;28;20025;-86
2024/01/16 06:57:11;;;;;;;11.27;3.95;;;;;;;-148.88;100.00;-17125.47;5034621;28;20117;-87
2024/01/16 06:59:36;;;;;;;17.65;3.63;;;;;;;-148.88;100.00;-17125.47;5034150;28;20064;-85
2024/01/16 07:02:03;;;;;;;12.05;3.10;;;;;;;-148.88;100.00;-17125.47;5032916;28;20598;-87
2024/01/16 07:04:28;;;;;;;19.50;4.40;;;;;;;-148.88;100.00;-17125.47;5034062;28;20022;-87
2024/01/16 07:06:54;;;;;;;10.38;3.80;;;;;;;-148.88;100.00;-17125.47;5032594;28;20028;-87
2024/01/16 07:09:20;;;;;;;9.85;4.05;;;;;;;-148.88;100.00;-17125.47;5033771;28;20025;-87
2024/01/16 07:11:49;;;;;;;10.90;3.35;;;;;;;-148.88;100.00;-17125.47;5032608;28;20082;-87
2024/01/16 07:14:15;;;;;;;7.53;3.60;;;;;;;-148.88;100.00;-17125.47;5034260;28;20021;-87
2024/01/16 07:16:40;;;;;;;13.75;4.13;;;;;;;-148.88;100.00;-17125.47;5033562;28;20499;-86
2024/01/16 07:19:06;;;;;;;8.05;3.45;;;;;;;-148.88;100.00;-17125.47;5032881;28;20480;-87
2024/01/16 07:21:31;;;;;;;10.73;4.13;;;;;;;-148.88;100.00;-17125.47;5032249;28;20514;-88
2024/01/16 07:23:57;;;;;;;12.57;4.07;;;;;;;-148.88;100.00;-17125.47;5034227;28;20051;-86
2024/01/16 07:26:23;;;;;;;11.57;4.00;;;;;;;-148.88;100.00;-17125.47;5033349;28;20029;-87
2024/01/16 07:28:48;;;;;;;8.82;3.72;;;;;;;-148.88;100.00;-17125.47;5032083;28;20049;-87
2024/01/16 07:31:16;;;;;;;15.75;4.55;;;;;;;-148.88;100.00;-17125.47;5033635;28;20025;-89
2024/01/16 07:33:44;;;;;;;14.80;4.53;;;;;;;-148.88;100.00;-17125.47;5033776;28;20101;-88
2024/01/16 07:36:12;;;;;;;9.98;3.63;;;;;;;-148.88;100.00;-17125.47;5033776;28;20029;-89
2024/01/16 07:38:37;;;;;;;13.27;3.92;;;;;;;-148.88;100.00;-17125.47;5032856;28;20021;-88
2024/01/16 07:41:06;;;;;;;11.05;4.05;;;;;;;-148.88;100.00;-17125.47;5033005;28;20028;-89
2024/01/16 07:43:32;;;;;;;9.00;3.72;;;;;;;-148.88;100.00;-17125.47;5033602;28;20029;-89
2024/01/16 07:46:01;;;;;;;11.73;4.18;;;;;;;-148.88;100.00;-17125.47;5032048;28;20068;-90
2024/01/16 07:48:27;;;;;;;12.55;3.78;;;;;;;-148.88;100.00;-17125.47;5032489;28;20037;-90
2024/01/16 07:50:52;;;;;;;14.82;4.68;;;;;;;-148.88;100.00;-17125.47;5033601;28;20083;-88
2024/01/16 07:53:18;;;;;;;9.38;3.83;;;;;;;-148.88;100.00;-17125.47;5032611;28;20108;-90
2024/01/16 07:55:46;;;;;;;8.32;3.80;;;;;;;-148.88;100.00;-17125.47;5032165;28;20475;-88
2024/01/16 07:58:13;;;;;;;9.77;4.22;;;;;;;-148.88;100.00;-17125.47;5032047;28;20391;-89
2024/01/16 08:00:41;;;;;;;8.35;3.88;;;;;;;-148.88;100.00;-17125.47;5031717;28;20079;-88
2024/01/16 08:03:11;;;;;;;8.50;3.17;;;;;;;-148.88;100.00;-17125.47;5032317;28;20064;-89
2024/01/16 08:05:37;;;;;;;9.60;3.83;;;;;;;-148.88;100.00;-17125.47;5033672;28;20040;-89
2024/01/16 08:08:03;;;;;;;10.18;4.30;;;;;;;-148.88;100.00;-17125.47;5032131;28;20036;-89
2024/01/16 08:10:28;;;;;;;6.70;3.03;;;;;;;-148.88;100.00;-17125.47;5033596;28;20025;-90
2024/01/16 08:12:54;;;;;;;16.50;4.78;;;;;;;-148.88;100.00;-17125.47;5031567;28;20092;-89
2024/01/16 08:15:25;;;;;;;10.90;3.83;;;;;;;-148.88;100.00;-17125.47;5032474;28;20056;-89
2024/01/16 08:17:51;;;;;;;10.75;3.35;;;;;;;-148.88;100.00;-17125.47;5033834;28;20052;-89
2024/01/16 08:20:17;;;;;;;8.48;4.00;;;;;;;-148.88;100.00;-17125.47;5033478;28;20488;-89
2024/01/16 08:22:45;;;;;;;10.00;4.25;;;;;;;-148.88;100.00;-17125.47;5034230;28;20113;-88
2024/01/16 08:25:15;;;;;;;17.40;4.05;;;;;;;-148.88;100.00;-17125.47;5032501;28;20516;-90
2024/01/16 08:27:43;;;;;;;12.98;3.83;;;;;;;-148.88;100.00;-17125.47;5038428;28;20078;-90
2024/01/16 08:30:12;;;;;;;11.48;4.35;;;;;;;-148.88;100.00;-17125.47;5036013;28;20602;-89
2024/01/16 08:32:37;;;;;;;18.55;4.07;;;;;;;-148.88;100.00;-17125.47;5034139;28;20128;-87
2024/01/16 08:35:05;;;;;;;11.90;4.18;;;;;;;-148.88;100.00;-17125.47;5035716;28;20496;-87
2024/01/16 08:37:34;;;;;;;9.82;4.03;;;;;;;-148.88;100.00;-17125.47;5035930;28;20487;-88
2024/01/16 08:40:04;;;;;;;12.02;4.43;;;;;;;-148.88;100.00;-17125.47;5036038;28;20124;-88
2024/01/16 08:42:33;;;;;;;13.95;3.53;;;;;;;-148.88;100.00;-17125.47;5036743;28;20088;-88
2024/01/16 08:44:58;;;;;;;10.35;4.60;;;;;;;-148.88;100.00;-17125.47;5035727;28;20021;-86
2024/01/16 08:47:24;;;;;;;8.00;3.55;;;;;;;-148.88;100.00;-17125.47;5036822;28;20018;-88
2024/01/16 08:49:49;;;;;;;7.70;4.10;;;;;;;-148.88;100.00;-17125.47;5035818;28;20026;-87
2024/01/16 08:52:15;;;;;;;13.25;3.88;;;;;;;-148.88;100.00;-17125.47;5038126;28;20009;-88
2024/01/16 08:54:44;;;;;;;11.65;3.50;;;;;;;-148.88;100.00;-17125.47;5035354;28;20025;-88
2024/01/16 08:57:13;;;;;;;8.02;3.20;;;;;;;-148.88;100.00;-17125.47;5039105;28;20436;-88
2024/01/16 08:59:39;;;;;;;10.10;3.92;;;;;;;-148.88;100.00;-17125.47;5037101;28;20021;-88
2024/01/16 09:02:04;;;;;;;10.05;3.92;;;;;;;-148.88;100.00;-17125.47;5035149;28;20074;-88
2024/01/16 09:04:30;;;;;;;8.77;3.22;;;;;;;-148.88;100.00;-17125.47;5035202;28;20087;-88
2024/01/16 09:06:55;;;;;;;12.30;4.63;;;;;;;-148.88;100.00;-17125.47;5034967;28;20018;-88
2024/01/16 09:09:21;;;;;;;13.00;4.00;;;;;;;-148.88;100.00;-17125.47;5034906;28;20399;-88
2024/01/16 09:11:46;;;;;;;7.45;3.35;;;;;;;-148.88;100.00;-17125.47;5036120;28;20460;-87
2024/01/16 09:14:15;;;;;;;12.48;3.92;;;;;;;-148.88;100.00;-17125.47;5034835;28;20041;-88
2024/01/16 09:16:41;;;;;;;11.88;3.83;;;;;;;-148.88;100.00;-17125.47;5036418;28;20091;-87
2024/01/16 09:19:06;;;;;;;10.57;4.75;;;;;;;-148.88;100.00;-17125.47;5034994;28;20053;-88
2024/01/16 09:21:32;;;;;;;10.02;4.35;;;;;;;-148.88;100.00;-17125.47;5035477;28;20065;-88
2024/01/16 09:23:57;;;;;;;9.23;3.33;;;;;;;-148.88;100.00;-17125.47;5036222;28;20434;-89
2024/01/16 09:26:25;;;;;;;12.02;4.18;;;;;;;-148.88;100.00;-17125.47;5034961;28;20017;-87
2024/01/16 09:28:55;;;;;;;9.05;3.35;;;;;;;-148.88;100.00;-17125.47;5035982;28;20050;-90
2024/01/16 09:31:20;;;;;;;9.13;5.00;;;;;;;-148.88;100.00;-17125.47;5035012;28;20388;-88
2024/01/16 09:33:46;;;;;;;8.95;3.70;;;;;;;-148.88;100.00;-17125.47;5035088;28;20026;-88
2024/01/16 09:36:13;;;;;;;11.45;3.83;;;;;;;-148.88;100.00;-17125.47;5034824;28;20384;-88
2024/01/16 09:38:44;;;;;;;10.48;3.72;;;;;;;-148.88;100.00;-17125.47;5034871;28;20506;-87
2024/01/16 09:41:32;;;;;;;7.43;3.00;;;;;;;-148.88;100.00;-17125.47;5035013;28;20036;-88
2024/01/16 09:43:58;;;;;;;9.80;4.47;;;;;;;-148.88;100.00;-17125.47;5035689;28;20029;-88
2024/01/16 09:46:25;;;;;;;10.02;3.67;;;;;;;-148.88;100.00;-17125.47;5036080;28;20021;-88
2024/01/16 09:48:54;;;;;;;12.30;3.67;;;;;;;-148.88;100.00;-17125.47;5036607;28;20377;-88
2024/01/16 09:51:24;;;;;;;8.80;3.42;;;;;;;-148.88;100.00;-17125.47;5035863;28;20018;-88
2024/01/16 09:53:51;;;;;;;10.18;3.55;;;;;;;-148.88;100.00;-17125.47;5036275;28;20033;-88
2024/01/16 09:56:20;;;;;;;10.68;3.65;;;;;;;-148.88;100.00;-17125.47;5035511;28;20021;-87
2024/01/16 09:58:48;;;;;;;13.05;3.78;;;;;;;-148.88;100.00;-17125.47;5035117;28;20530;-88
2024/01/16 10:01:15;;;;;;;9.50;3.58;;;;;;;-148.88;100.00;-17125.47;5036285;28;20071;-88
2024/01/16 10:03:44;;;;;;;7.95;3.55;;;;;;;-148.88;100.00;-17125.47;5036665;28;20044;-87
2024/01/16 10:06:11;;;;;;;9.30;3.28;;;;;;;-148.88;100.00;-17125.47;5036310;28;20031;-87
2024/01/16 10:08:46;;;;;;;11.27;3.85;;;;;;;-148.88;100.00;-17125.47;5034319;28;20037;-88
2024/01/16 10:11:13;;;;;;;8.38;3.78;;;;;;;-148.88;100.00;-17125.47;5035293;28;20476;-88
2024/01/16 10:13:45;;;;;;;9.85;3.90;;;;;;;-148.88;100.00;-17125.47;5035266;28;20025;-88
2024/01/16 10:16:10;;;;;;;10.70;4.78;;;;;;;-148.88;100.00;-17125.47;5034482;28;20048;-90
2024/01/16 10:18:38;;;;;;;10.55;3.70;;;;;;;-148.88;100.00;-17125.47;5035278;28;20399;-90
2024/01/16 10:21:04;;;;;;;9.80;4.53;;;;;;;-148.88;100.00;-17125.47;5034571;28;20120;-89
2024/01/16 10:23:32;;;;;;;7.88;3.45;;;;;;;-148.88;100.00;-17125.47;5033734;28;20017;-90
2024/01/16 10:26:20;;;;;;;12.95;4.35;;;;;;;-148.88;100.00;-17125.47;5035278;28;20025;-90
2024/01/16 10:28:54;;;;;;;12.23;4.55;;;;;;;-148.88;100.00;-17125.47;5034861;28;20056;-89
2024/01/16 10:31:19;;;;;;;9.35;3.80;;;;;;;-148.88;100.00;-17125.47;5034367;28;20059;-89
2024/01/16 10:33:45;;;;;;;16.27;4.75;;;;;;;-148.88;100.00;-17125.47;5034669;28;20052;-88
2024/01/16 10:36:12;;;;;;;12.25;5.15;;;;;;;-148.88;100.00;-17125.47;5034530;28;20391;-88
2024/01/16 10:38:39;;;;;;;12.80;5.45;;;;;;;-148.88;100.00;-17125.47;5037121;28;20036;-87
2024/01/16 10:41:06;;;;;;;13.50;5.78;;;;;;;-148.88;100.00;-17125.47;5034507;28;20025;-87
2024/01/16 10:43:31;;;;;;;10.35;4.60;;;;;;;-148.88;100.00;-17125.47;5035460;28;20529;-86
2024/01/16 10:46:09;;;;;;;14.25;5.25;;;;;;;-148.88;100.00;-17125.47;5034230;28;20130;-86
2024/01/16 10:48:35;;;;;;;12.38;4.75;;;;;;;-148.88;100.00;-17125.47;5033845;28;20017;-87
2024/01/16 10:51:02;;;;;;;13.38;4.78;;;;;;;-148.88;100.00;-17125.47;5035930;28;20060;-87
2024/01/16 10:53:32;;;;;;;9.10;4.55;;;;;;;-148.88;100.00;-17125.47;5035608;28;20029;-87
2024/01/16 10:56:00;;;;;;;13.73;5.38;;;;;;;-148.88;100.00;-17125.47;5035026;28;20037;-89
2024/01/16 10:58:26;;;;;;;23.40;5.45;;;;;;;-148.88;100.00;-17125.47;5034738;28;20032;-88